Time;durP1;ratioP1;P1;durP2;ratioP2;P2;SDS_P1;SDS_P2;PMS_P1;PMS_P2;Temp;Humidity;BMP_temperature;BMP_pressure;BME280_temperature;BME280_humidity;BME280_pressure;Samples;Min_cycle;Max_cycle;Signal;HPM_P1;HPM_P2
2022/10/14 00:01:43;;;;;;;12.90;3.90;;;;;;;11.41;71.34;99908.88;4991848;28;20541;-41
2022/10/14 00:04:10;;;;;;;14.23;4.20;;;;;;;11.41;71.54;99903.69;4984091;28;20047;-40
2022/10/14 00:06:37;;;;;;;15.50;4.78;;;;;;;11.42;71.36;99900.25;4987342;28;20130;-41
2022/10/14 00:09:07;;;;;;;10.80;4.15;;;;;;;11.42;71.53;99887.28;4985238;28;20108;-40
2022/10/14 00:11:35;;;;;;;10.30;4.40;;;;;;;11.42;71.88;99880.34;4985709;28;20070;-41
2022/10/14 00:14:06;;;;;;;11.65;4.22;;;;;;;11.43;71.49;99876.03;4982458;28;20046;-41
2022/10/14 00:16:36;;;;;;;12.02;4.78;;;;;;;11.43;71.68;99886.41;4980480;28;20129;-41
2022/10/14 00:19:04;;;;;;;11.57;3.88;;;;;;;11.43;72.36;99886.41;4984072;28;20082;-41
2022/10/14 00:21:32;;;;;;;12.40;4.30;;;;;;;11.42;71.85;99889.88;4982989;28;20050;-41
2022/10/14 00:24:01;;;;;;;11.60;4.13;;;;;;;11.42;72.28;99888.13;4967246;28;20050;-41
2022/10/14 00:26:32;;;;;;;11.63;4.07;;;;;;;11.43;71.00;99886.41;4984684;28;20133;-41
2022/10/14 00:29:01;;;;;;;10.57;4.60;;;;;;;11.41;71.85;99885.53;4985239;28;20532;-41
2022/10/14 00:31:30;;;;;;;12.82;4.43;;;;;;;11.41;72.39;99895.91;4979452;28;20042;-42
2022/10/14 00:33:58;;;;;;;11.80;4.95;;;;;;;11.41;71.38;99890.72;4976436;28;20520;-42
2022/10/14 00:36:27;;;;;;;12.80;4.30;;;;;;;11.40;71.07;99889.03;4981950;28;20046;-42
2022/10/14 00:38:54;;;;;;;14.95;4.72;;;;;;;11.40;71.54;99883.84;4978462;28;20050;-41
2022/10/14 00:41:31;;;;;;;11.15;4.53;;;;;;;11.36;71.50;99882.16;4985896;28;20051;-40
2022/10/14 00:46:40;;;;;;;17.73;6.93;;;;;;;11.76;72.21;99886.94;5010069;28;20741;-41
2022/10/14 00:51:51;;;;;;;16.83;6.25;;;;;;;11.48;72.79;99891.56;5045580;27;20398;-41
2022/10/14 00:54:22;;;;;;;15.00;5.53;;;;;;;11.43;71.93;99889.88;5014163;28;20073;-41
2022/10/14 00:56:49;;;;;;;15.77;5.63;;;;;;;11.42;72.75;99874.31;5015443;28;20137;-42
2022/10/14 00:59:16;;;;;;;16.08;6.25;;;;;;;11.42;72.34;99874.31;5012265;28;20165;-42
2022/10/14 01:01:43;;;;;;;13.02;5.10;;;;;;;11.40;73.12;99868.28;5015455;28;20144;-41
2022/10/14 01:04:10;;;;;;;16.30;4.85;;;;;;;11.40;73.08;99865.69;5009444;28;20081;-41
2022/10/14 01:06:54;;;;;;;13.25;4.78;;;;;;;11.36;72.17;99864.88;5018160;28;20180;-41
2022/10/14 01:09:37;;;;;;;14.60;4.90;;;;;;;11.34;72.65;99860.56;5012854;28;20849;-41
2022/10/14 01:15:20;;;;;;;15.30;5.25;;;;;;;11.32;72.67;99853.66;5061214;27;20411;-42
2022/10/14 01:20:54;;;;;;;17.08;6.63;;;;;;;11.34;72.38;99837.25;5037957;28;20396;-41
2022/10/14 01:26:53;;;;;;;15.25;6.28;;;;;;;11.29;72.19;99839.88;5018850;27;20410;-42
2022/10/14 01:32:05;;;;;;;15.80;5.15;;;;;;;11.31;73.20;99836.38;5025258;27;20418;-42
2022/10/14 01:34:39;;;;;;;16.27;5.32;;;;;;;11.31;72.32;99826.00;5015026;28;20560;-42
2022/10/14 01:37:15;;;;;;;17.15;5.63;;;;;;;11.31;72.39;99826.00;5034353;28;20069;-41
2022/10/14 01:39:46;;;;;;;15.15;5.78;;;;;;;11.32;72.58;99816.50;5037470;28;20053;-41
2022/10/14 01:42:18;;;;;;;17.10;5.55;;;;;;;11.35;72.94;99820.78;5037210;28;20052;-41
2022/10/14 01:44:53;;;;;;;17.25;5.07;;;;;;;11.34;73.15;99819.09;5033455;28;20044;-40
2022/10/14 01:47:20;;;;;;;15.27;5.72;;;;;;;11.35;73.10;99816.44;5015954;28;20053;-42
2022/10/14 01:49:54;;;;;;;16.23;5.93;;;;;;;11.35;72.62;99820.78;5031239;28;20038;-42
2022/10/14 01:52:28;;;;;;;13.80;6.13;;;;;;;11.35;73.21;99810.44;5032373;28;20037;-41
2022/10/14 01:55:01;;;;;;;20.45;6.03;;;;;;;11.35;73.20;99805.25;5023656;28;20119;-41
2022/10/14 01:57:32;;;;;;;22.45;5.95;;;;;;;11.37;72.55;99806.06;5028190;28;20076;-42
2022/10/14 02:00:01;;;;;;;19.05;6.78;;;;;;;11.37;73.88;99798.28;5032589;28;20041;-42
2022/10/14 02:02:27;;;;;;;18.50;6.55;;;;;;;11.38;73.36;99787.06;5028097;28;20049;-42
2022/10/14 02:04:54;;;;;;;21.00;5.85;;;;;;;11.39;72.96;99796.56;5026447;28;20568;-41
2022/10/14 02:12:53;;;;;;;15.25;7.15;;;;;;;11.39;73.82;99771.47;5056380;27;20411;-41
2022/10/14 02:26:41;;;;;;;16.77;5.65;;;;;;;11.46;73.22;99751.53;5035382;28;20415;-41
2022/10/14 02:29:08;;;;;;;18.33;5.75;;;;;;;11.46;74.01;99740.28;4990962;28;20082;-41
2022/10/14 02:31:38;;;;;;;16.35;5.85;;;;;;;11.46;73.66;99735.97;4991509;28;20533;-41
2022/10/14 02:34:08;;;;;;;;;;;;;;;11.31;74.22;99730.06;4985888;28;20191;-41
2022/10/14 02:36:35;;;;;;;;;;;;;;;11.28;73.56;99727.50;4989372;28;19968;-42
2022/10/14 02:39:05;;;;;;;13.73;5.90;;;;;;;11.39;73.61;99731.72;4984764;28;19956;-42
2022/10/14 02:41:35;;;;;;;15.00;6.00;;;;;;;11.42;73.69;99740.31;4979664;28;20077;-41
2022/10/14 02:44:04;;;;;;;17.30;5.88;;;;;;;11.42;73.23;99735.13;4986150;28;20074;-42
2022/10/14 02:46:32;;;;;;;18.60;6.88;;;;;;;11.45;74.01;99734.22;4986325;28;20085;-42
2022/10/14 02:48:59;;;;;;;16.60;6.13;;;;;;;11.46;72.76;99725.59;4989105;28;20046;-41
2022/10/14 02:51:25;;;;;;;16.85;6.22;;;;;;;11.47;73.45;99722.13;4989485;28;20137;-41
2022/10/14 02:53:52;;;;;;;12.07;5.32;;;;;;;11.48;73.25;99717.81;4989405;28;20134;-42
2022/10/14 02:56:19;;;;;;;13.80;6.07;;;;;;;11.47;73.85;99716.06;4992276;28;20129;-41
2022/10/14 02:58:45;;;;;;;14.07;5.80;;;;;;;11.47;73.55;99716.94;4987062;28;20051;-41
2022/10/14 03:01:12;;;;;;;11.52;4.70;;;;;;;11.46;74.17;99710.03;4982208;28;20141;-39
2022/10/14 03:03:39;;;;;;;14.50;4.72;;;;;;;11.47;73.79;99701.38;4988783;28;20578;-42
2022/10/14 03:06:06;;;;;;;11.27;4.30;;;;;;;11.48;74.50;99697.91;4991135;28;20130;-41
2022/10/14 03:08:32;;;;;;;12.73;5.07;;;;;;;11.50;73.79;99692.69;4986405;28;20068;-40
2022/10/14 03:10:59;;;;;;;13.88;4.85;;;;;;;11.50;73.73;99693.56;4987023;28;20149;-41
2022/10/14 03:13:26;;;;;;;13.77;4.88;;;;;;;11.51;74.29;99695.28;4986943;28;20073;-41
2022/10/14 03:15:52;;;;;;;16.60;4.38;;;;;;;11.52;73.13;99689.19;4988562;28;20145;-41
2022/10/14 03:18:20;;;;;;;15.15;4.35;;;;;;;11.52;73.73;99681.41;4984038;28;20058;-41
2022/10/14 03:20:47;;;;;;;11.80;4.97;;;;;;;11.52;74.27;99677.97;4983412;28;20089;-40
2022/10/14 03:23:13;;;;;;;15.48;5.22;;;;;;;11.52;73.81;99678.81;4985819;28;20049;-39
2022/10/14 03:25:42;;;;;;;11.82;4.28;;;;;;;11.54;74.79;99687.47;4989071;28;20162;-41
2022/10/14 03:28:09;;;;;;;9.25;3.78;;;;;;;11.53;73.86;99677.97;4988103;28;20491;-41
2022/10/14 03:30:36;;;;;;;10.82;4.18;;;;;;;11.54;73.76;99666.72;4988184;28;20050;-40
2022/10/14 03:33:02;;;;;;;10.65;4.40;;;;;;;11.56;73.63;99661.50;4988254;28;20050;-41
2022/10/14 03:35:29;;;;;;;15.30;4.47;;;;;;;11.56;73.78;99659.75;4990159;28;20065;-41
2022/10/14 03:37:58;;;;;;;14.68;4.80;;;;;;;11.56;73.65;99657.16;4970756;28;20133;-42
2022/10/14 03:40:24;;;;;;;13.32;4.43;;;;;;;11.57;73.76;99655.44;4976713;28;20050;-41
2022/10/14 03:42:51;;;;;;;17.70;4.35;;;;;;;11.57;74.15;99653.69;4971815;28;20149;-41
2022/10/14 03:45:17;;;;;;;12.40;5.47;;;;;;;11.59;74.19;99647.63;4971242;28;20414;-41
2022/10/14 03:47:44;;;;;;;12.80;4.60;;;;;;;11.57;74.18;99645.06;4984865;28;20129;-41
2022/10/14 03:50:11;;;;;;;10.52;3.83;;;;;;;11.56;74.62;99638.16;4974030;28;20506;-41
2022/10/14 03:52:39;;;;;;;11.38;4.32;;;;;;;11.57;74.83;99632.94;4979280;28;20074;-40
2022/10/14 03:55:11;;;;;;;12.88;4.13;;;;;;;11.55;74.58;99637.28;4976388;28;20128;-40
2022/10/14 03:57:38;;;;;;;7.13;3.47;;;;;;;11.55;74.28;99626.91;4964826;28;20051;-40
2022/10/14 04:00:06;;;;;;;9.98;3.65;;;;;;;11.54;74.77;99633.00;4965770;28;20042;-41
2022/10/14 04:02:32;;;;;;;10.80;3.50;;;;;;;11.52;73.68;99632.13;4972871;28;20153;-41
2022/10/14 04:04:59;;;;;;;11.27;3.72;;;;;;;11.52;74.82;99636.50;4981453;28;20042;-40
2022/10/14 04:07:26;;;;;;;11.07;4.25;;;;;;;11.47;74.13;99628.75;4975323;28;20042;-41
2022/10/14 04:09:53;;;;;;;12.23;3.72;;;;;;;11.45;74.87;99625.31;4975136;28;20650;-41
2022/10/14 04:12:20;;;;;;;9.45;3.70;;;;;;;11.43;74.75;99627.09;4978446;28;20071;-40
2022/10/14 04:14:47;;;;;;;11.95;4.75;;;;;;;11.40;74.77;99625.41;4976387;28;20074;-41
2022/10/14 04:17:14;;;;;;;14.05;5.07;;;;;;;11.37;74.11;99633.22;4973787;28;20042;-40
2022/10/14 04:19:41;;;;;;;9.00;4.18;;;;;;;11.35;74.12;99640.13;4982022;28;20133;-40
2022/10/14 04:22:08;;;;;;;11.13;4.50;;;;;;;11.35;73.73;99644.47;4977915;28;20150;-41
2022/10/14 04:24:35;;;;;;;13.18;3.80;;;;;;;11.31;74.57;99639.31;4978719;28;20274;-40
2022/10/14 04:27:02;;;;;;;12.65;4.07;;;;;;;11.30;73.66;99637.63;4973734;28;20054;-42
2022/10/14 04:29:28;;;;;;;15.20;4.07;;;;;;;11.29;74.75;99635.03;4972585;28;20046;-42
2022/10/14 04:31:55;;;;;;;15.90;4.50;;;;;;;11.26;74.27;99635.94;4967702;28;20134;-44
2022/10/14 04:34:21;;;;;;;16.40;4.53;;;;;;;11.23;74.28;99633.38;4975215;28;20494;-42
2022/10/14 04:36:48;;;;;;;13.18;4.80;;;;;;;11.21;73.81;99622.16;4976792;28;20061;-41
2022/10/14 04:39:15;;;;;;;12.00;5.25;;;;;;;11.18;74.09;99617.88;4971413;28;20053;-41
2022/10/14 04:41:41;;;;;;;12.30;4.93;;;;;;;11.17;74.93;99621.34;4967536;28;20125;-41
2022/10/14 04:44:08;;;;;;;13.00;4.32;;;;;;;11.15;74.74;99612.72;4976640;28;20043;-42
2022/10/14 04:46:34;;;;;;;14.02;4.97;;;;;;;11.13;75.04;99616.22;4964008;28;20157;-41
2022/10/14 04:49:01;;;;;;;14.05;4.55;;;;;;;11.10;74.99;99608.47;4964391;28;20074;-42
2022/10/14 04:51:28;;;;;;;15.27;3.88;;;;;;;11.08;74.88;99605.06;4969586;28;20072;-42
2022/10/14 04:53:56;;;;;;;13.05;5.60;;;;;;;11.04;74.52;99610.28;4971934;28;20066;-41
2022/10/14 04:56:22;;;;;;;13.10;4.68;;;;;;;11.01;73.83;99610.31;4965454;28;20142;-42
2022/10/14 04:58:49;;;;;;;13.35;4.38;;;;;;;10.98;74.41;99610.31;4967728;28;20046;-40
2022/10/14 05:01:17;;;;;;;16.33;4.50;;;;;;;10.97;74.54;99603.44;4967781;28;20065;-44
2022/10/14 05:03:44;;;;;;;13.32;4.68;;;;;;;10.95;74.61;99601.75;4969180;28;20050;-42
2022/10/14 05:06:10;;;;;;;10.55;4.40;;;;;;;10.92;74.68;99594.88;4968095;28;20563;-43
2022/10/14 05:08:37;;;;;;;11.32;4.30;;;;;;;10.91;74.29;99595.75;4976579;28;20198;-41
2022/10/14 05:11:04;;;;;;;10.60;4.35;;;;;;;10.90;74.80;99601.78;4970672;28;20125;-42
2022/10/14 05:13:30;;;;;;;15.63;4.90;;;;;;;10.88;74.17;99593.19;4970297;28;20129;-42
2022/10/14 05:15:57;;;;;;;14.55;4.55;;;;;;;10.87;75.00;99589.72;4971274;28;20049;-43
2022/10/14 05:18:23;;;;;;;11.32;4.60;;;;;;;10.88;74.84;99583.66;4975397;28;20050;-42
2022/10/14 05:20:50;;;;;;;16.08;5.78;;;;;;;10.89;75.30;99584.53;4975819;28;20129;-42
2022/10/14 05:23:17;;;;;;;19.17;4.35;;;;;;;10.91;75.37;99587.97;4971250;28;20081;-42
2022/10/14 05:25:43;;;;;;;14.20;5.10;;;;;;;10.94;74.35;99585.31;4965396;28;20077;-41
2022/10/14 05:28:10;;;;;;;11.38;4.78;;;;;;;10.98;74.67;99584.41;4966188;28;20050;-42
2022/10/14 05:30:37;;;;;;;13.23;5.43;;;;;;;11.02;75.56;99575.72;4964810;28;20542;-41
2022/10/14 05:33:03;;;;;;;16.15;5.55;;;;;;;11.05;74.84;99580.88;4979865;28;20054;-40
2022/10/14 05:35:30;;;;;;;13.30;5.72;;;;;;;11.07;74.76;99577.44;4969135;28;20074;-41
2022/10/14 05:38:16;;;;;;;17.38;6.03;;;;;;;11.11;75.50;99576.50;4975780;28;20533;-42
2022/10/14 05:40:50;;;;;;;14.60;5.18;;;;;;;11.13;74.67;99567.84;4973886;28;20062;-42
2022/10/14 05:43:17;;;;;;;17.75;5.97;;;;;;;11.16;75.69;99561.75;4973859;28;20081;-42
2022/10/14 05:45:43;;;;;;;12.93;5.35;;;;;;;11.20;75.16;99560.84;4967077;28;20051;-42
2022/10/14 05:48:10;;;;;;;15.30;7.00;;;;;;;11.24;75.56;99565.09;4968076;28;20485;-41
2022/10/14 05:50:37;;;;;;;12.90;4.75;;;;;;;11.26;75.52;99565.94;4964577;28;20130;-40
2022/10/14 05:53:03;;;;;;;14.50;6.20;;;;;;;11.29;75.58;99559.84;4972040;28;20477;-40
2022/10/14 05:55:30;;;;;;;13.68;4.22;;;;;;;11.31;74.97;99555.50;4965479;28;20074;-43
2022/10/14 05:57:57;;;;;;;20.00;5.85;;;;;;;11.34;75.81;99554.63;4978169;28;20112;-43
2022/10/14 06:00:24;;;;;;;17.48;4.97;;;;;;;11.35;75.70;99561.50;4966552;28;20054;-40
2022/10/14 06:02:51;;;;;;;17.25;5.22;;;;;;;11.37;75.84;99554.56;4971927;28;20066;-41
2022/10/14 06:05:18;;;;;;;20.67;5.22;;;;;;;11.40;75.34;99549.34;4969013;28;20136;-42
2022/10/14 06:07:44;;;;;;;15.15;5.63;;;;;;;11.41;75.31;99545.84;4983780;28;20134;-41
2022/10/14 06:10:11;;;;;;;12.40;4.90;;;;;;;11.44;75.40;99548.41;4973842;28;20042;-41
2022/10/14 06:12:38;;;;;;;18.60;5.03;;;;;;;11.46;74.84;99544.06;4975914;28;20042;-41
2022/10/14 06:15:05;;;;;;;15.80;5.53;;;;;;;11.48;75.33;99536.28;4970934;28;20093;-42
2022/10/14 06:17:32;;;;;;;18.55;6.10;;;;;;;11.51;75.28;99531.00;4971429;28;20598;-42
2022/10/14 06:19:58;;;;;;;12.30;4.88;;;;;;;11.53;76.16;99535.31;4967087;28;20095;-42
2022/10/14 06:22:25;;;;;;;17.50;5.43;;;;;;;11.56;75.71;99527.47;4964245;28;20042;-41
2022/10/14 06:24:51;;;;;;;14.57;4.50;;;;;;;11.59;76.41;99533.50;4964508;28;20494;-40
2022/10/14 06:27:18;;;;;;;14.43;4.90;;;;;;;11.60;76.18;99535.22;4978587;28;20133;-43
2022/10/14 06:29:45;;;;;;;12.80;4.82;;;;;;;11.62;75.33;99533.47;4968348;28;20082;-42
2022/10/14 06:32:12;;;;;;;10.82;4.00;;;;;;;11.64;75.38;99526.50;4964761;28;20523;-42
2022/10/14 06:34:38;;;;;;;10.50;4.18;;;;;;;11.66;75.39;99529.94;4970197;28;20701;-41
2022/10/14 06:37:05;;;;;;;14.45;4.68;;;;;;;11.68;76.07;99534.22;4963441;28;20074;-44
2022/10/14 06:39:32;;;;;;;9.35;4.38;;;;;;;11.70;75.46;99526.41;4967609;28;20050;-43
2022/10/14 06:41:59;;;;;;;11.20;5.03;;;;;;;11.73;75.35;99521.19;4970280;28;20077;-43
2022/10/14 06:44:25;;;;;;;12.95;4.75;;;;;;;11.75;76.65;99527.19;4969294;28;20075;-43
2022/10/14 06:46:52;;;;;;;11.60;4.18;;;;;;;11.75;75.96;99522.00;4967830;28;20099;-40
2022/10/14 06:49:18;;;;;;;15.75;4.82;;;;;;;11.78;75.45;99521.97;4968524;28;20797;-40
2022/10/14 06:51:45;;;;;;;12.95;5.22;;;;;;;11.80;76.48;99515.03;4959862;28;20097;-41
2022/10/14 06:54:12;;;;;;;14.52;4.65;;;;;;;11.81;76.60;99506.34;4964625;28;20152;-42
2022/10/14 06:56:38;;;;;;;14.80;4.55;;;;;;;11.83;76.60;99507.16;4964883;28;20077;-43
2022/10/14 06:59:05;;;;;;;15.30;4.65;;;;;;;11.87;75.57;99507.13;4965888;28;20082;-42
2022/10/14 07:01:31;;;;;;;14.90;4.80;;;;;;;11.89;76.06;99510.56;4958517;28;20078;-41
2022/10/14 07:03:58;;;;;;;11.75;4.80;;;;;;;11.91;75.87;99509.63;4960650;28;20057;-41
2022/10/14 07:06:25;;;;;;;14.20;4.57;;;;;;;11.94;75.97;99504.41;4959854;28;20141;-41
2022/10/14 07:08:51;;;;;;;17.42;5.40;;;;;;;12.00;76.67;99507.75;4960004;28;20451;-43
2022/10/14 07:11:18;;;;;;;15.13;4.50;;;;;;;12.02;75.53;99509.44;4962556;28;20142;-41
2022/10/14 07:13:45;;;;;;;11.32;3.75;;;;;;;12.07;76.52;99509.41;4962904;28;20511;-41
2022/10/14 07:16:11;;;;;;;10.82;3.95;;;;;;;12.10;75.90;99513.69;4965682;28;20169;-44
2022/10/14 07:18:38;;;;;;;13.35;4.13;;;;;;;12.13;76.03;99524.84;4969140;28;20051;-41
2022/10/14 07:21:05;;;;;;;15.27;4.80;;;;;;;12.19;75.72;99518.69;4956698;28;20050;-44
2022/10/14 07:23:32;;;;;;;8.63;3.95;;;;;;;12.23;75.72;99522.13;4961526;28;20082;-42
2022/10/14 07:26:00;;;;;;;14.98;4.60;;;;;;;12.25;75.95;99523.78;4970364;28;20050;-41
2022/10/14 07:28:27;;;;;;;11.52;4.22;;;;;;;12.30;76.18;99532.34;4943860;28;20170;-43
2022/10/14 07:31:00;;;;;;;11.95;4.55;;;;;;;12.33;75.66;99537.50;4962733;28;20121;-43
2022/10/14 07:33:27;;;;;;;18.23;4.60;;;;;;;12.38;76.51;99540.00;4979234;28;20141;-42
2022/10/14 07:35:54;;;;;;;13.93;4.72;;;;;;;12.42;76.46;99535.59;4973727;28;20058;-46
2022/10/14 07:38:21;;;;;;;18.52;4.95;;;;;;;12.47;75.88;99526.00;4977886;28;20120;-43
2022/10/14 07:40:58;;;;;;;14.80;5.25;;;;;;;12.48;75.86;99530.31;4983392;28;20046;-42
2022/10/14 07:43:25;;;;;;;15.43;5.22;;;;;;;12.55;75.86;99544.91;4981324;28;20478;-43
2022/10/14 07:45:58;;;;;;;16.85;6.05;;;;;;;12.59;76.52;99538.75;4980876;28;20475;-43
2022/10/14 07:48:28;;;;;;;13.70;5.43;;;;;;;12.65;76.55;99544.69;4976162;28;20585;-43
2022/10/14 07:51:10;;;;;;;18.02;5.97;;;;;;;12.68;76.33;99542.06;4971317;28;20354;-43
2022/10/14 07:53:37;;;;;;;14.43;5.28;;;;;;;12.71;75.37;99529.84;4974513;28;20055;-40
2022/10/14 07:56:03;;;;;;;16.13;5.05;;;;;;;12.74;76.26;99547.13;4982718;28;20541;-41
2022/10/14 07:58:30;;;;;;;12.23;5.13;;;;;;;12.78;75.51;99543.59;4983276;28;20042;-44
2022/10/14 08:00:57;;;;;;;16.42;6.07;;;;;;;12.82;75.85;99542.63;4976077;28;20050;-42
2022/10/14 08:03:24;;;;;;;12.13;4.97;;;;;;;12.88;76.36;99549.47;4972995;28;20070;-44
2022/10/14 08:05:58;;;;;;;18.95;5.45;;;;;;;12.95;75.66;99555.38;4972232;28;20073;-44
2022/10/14 08:08:27;;;;;;;13.35;4.75;;;;;;;13.01;75.63;99560.47;4973416;28;20113;-43
2022/10/14 08:11:15;;;;;;;11.70;5.13;;;;;;;13.04;75.71;99560.38;4982005;28;20498;-41
2022/10/14 08:13:44;;;;;;;12.57;4.82;;;;;;;13.13;76.32;99558.50;4983809;28;20060;-45
2022/10/14 08:18:56;;;;;;;12.60;6.38;;;;;;;13.19;75.28;99563.53;5034562;27;20407;-43
2022/10/14 08:21:24;;;;;;;14.75;6.20;;;;;;;13.23;76.08;99565.19;5000887;28;20061;-43
2022/10/14 08:23:51;;;;;;;13.98;5.82;;;;;;;13.25;76.00;99558.22;5004357;28;20133;-45
2022/10/14 08:29:01;;;;;;;17.75;5.30;;;;;;;13.29;76.05;99565.06;5059316;28;20388;-45
2022/10/14 08:31:28;;;;;;;14.25;4.53;;;;;;;13.32;75.54;99575.41;5002890;28;20050;-43
2022/10/14 08:33:56;;;;;;;11.07;4.03;;;;;;;13.37;75.95;99576.16;5001856;28;20136;-43
2022/10/14 08:36:22;;;;;;;13.70;4.60;;;;;;;13.43;75.93;99576.91;5001430;28;20121;-45
2022/10/14 08:38:51;;;;;;;9.82;4.03;;;;;;;13.47;75.25;99568.13;5001248;28;20481;-44
2022/10/14 08:44:24;;;;;;;9.77;4.22;;;;;;;13.48;75.57;99572.47;5056457;28;20396;-41
2022/10/14 08:46:57;;;;;;;11.77;4.05;;;;;;;13.53;75.89;99561.97;5028760;28;20071;-45
2022/10/14 08:52:34;;;;;;;9.52;5.40;;;;;;;13.56;75.49;99557.56;5007553;28;20775;-41
2022/10/14 08:55:18;;;;;;;11.50;6.22;;;;;;;13.60;75.00;99564.41;5005039;28;20478;-43
2022/10/14 08:57:52;;;;;;;10.73;5.30;;;;;;;13.66;75.89;99552.13;5010337;28;20077;-42
2022/10/14 09:00:19;;;;;;;12.85;6.30;;;;;;;13.67;75.32;99564.25;4995827;28;20058;-42
2022/10/14 09:02:49;;;;;;;10.05;5.90;;;;;;;13.69;75.23;99571.16;5000853;28;20057;-41
2022/10/14 09:05:20;;;;;;;12.60;6.78;;;;;;;13.69;75.53;99560.75;5013596;28;20124;-42
2022/10/14 09:07:50;;;;;;;9.98;4.75;;;;;;;13.72;75.01;99559.81;4985679;28;20078;-43
2022/10/14 09:10:28;;;;;;;14.20;6.70;;;;;;;13.74;75.84;99560.63;4989931;28;20084;-41
2022/10/14 09:13:00;;;;;;;10.45;5.20;;;;;;;13.77;75.28;99559.72;5005276;28;20054;-43
2022/10/14 09:15:33;;;;;;;11.07;6.68;;;;;;;13.78;75.47;99561.41;4993164;28;20097;-43
2022/10/14 09:20:39;;;;;;;9.00;4.03;;;;;;;13.80;75.68;99552.69;5053416;27;20409;-42
2022/10/14 09:28:35;;;;;;;11.48;4.53;;;;;;;13.90;75.51;99549.84;5026619;27;20414;-43
2022/10/14 09:31:03;;;;;;;9.10;4.50;;;;;;;13.93;75.58;99549.75;5007572;28;20045;-42
2022/10/14 09:33:30;;;;;;;13.73;3.97;;;;;;;13.94;75.97;99541.91;4993900;28;20046;-42
2022/10/14 09:35:57;;;;;;;11.25;5.18;;;;;;;13.97;76.02;99540.97;5014869;28;20096;-42
2022/10/14 09:38:28;;;;;;;9.20;4.13;;;;;;;14.00;76.09;99530.50;5001890;28;20054;-42
2022/10/14 09:40:58;;;;;;;8.65;3.90;;;;;;;14.04;75.41;99531.25;5002057;28;20559;-42
2022/10/14 09:43:25;;;;;;;12.30;4.78;;;;;;;14.06;75.15;99535.56;4997966;28;20133;-41
2022/10/14 09:51:29;;;;;;;11.80;5.47;;;;;;;14.10;75.75;99525.91;5055632;27;20392;-41
2022/10/14 09:53:58;;;;;;;9.85;4.88;;;;;;;14.14;75.97;99520.59;5024043;28;20092;-42
2022/10/14 09:56:36;;;;;;;8.68;5.68;;;;;;;14.12;74.91;99517.16;5042008;28;20123;-44
2022/10/14 09:59:19;;;;;;;12.77;5.90;;;;;;;14.15;75.90;99526.63;5037372;28;20049;-43
2022/10/14 10:01:52;;;;;;;10.88;5.82;;;;;;;14.17;75.10;99526.59;5037315;28;20711;-42
2022/10/14 10:04:40;;;;;;;11.75;5.20;;;;;;;14.14;75.39;99527.53;5034230;28;20132;-41
2022/10/14 10:10:00;;;;;;;12.25;6.03;;;;;;;14.47;75.76;99524.06;5012112;28;20414;-43
2022/10/14 10:12:30;;;;;;;7.75;4.05;;;;;;;14.34;75.75;99524.41;5004506;28;20077;-42
2022/10/14 10:15:04;;;;;;;4.75;2.85;;;;;;;14.31;75.84;99524.50;5004738;28;20120;-43
2022/10/14 10:17:34;;;;;;;3.72;1.88;;;;;;;14.30;75.66;99528.00;5007188;28;20236;-45
2022/10/14 10:20:08;;;;;;;4.93;2.00;;;;;;;14.29;75.95;99515.88;5005094;28;20046;-41
2022/10/14 10:22:38;;;;;;;3.05;1.90;;;;;;;14.31;75.25;99514.06;5004410;28;20128;-42
2022/10/14 10:27:46;;;;;;;2.00;1.00;;;;;;;14.36;75.55;99506.97;5019686;28;20422;-43
2022/10/14 10:38:30;;;;;;;2.25;0.65;;;;;;;14.56;75.13;99484.72;5076008;27;20424;-42
2022/10/14 10:52:35;;;;;;;2.22;0.63;;;;;;;14.87;75.50;99512.56;5025214;28;20909;-43
2022/10/14 10:55:15;;;;;;;1.20;0.70;;;;;;;14.90;74.60;99509.84;5016370;28;20053;-42
2022/10/14 11:00:22;;;;;;;1.80;1.50;;;;;;;14.93;74.58;99505.47;5040603;27;20410;-42
2022/10/14 11:06:09;;;;;;;2.92;1.10;;;;;;;14.95;74.61;99501.03;5027031;28;20760;-42
2022/10/14 11:12:14;;;;;;;2.58;1.05;;;;;;;14.97;74.41;99512.28;4980089;28;20154;-42
2022/10/14 11:23:19;;;;;;;1.23;0.70;;;;;;;14.89;73.72;99500.34;5036778;28;20400;-43
2022/10/14 11:31:12;;;;;;;0.90;0.55;;;;;;;14.94;73.58;99491.53;5087374;27;20402;-43
2022/10/14 11:47:39;;;;;;;3.42;2.17;;;;;;;15.14;73.80;99452.63;5047928;27;20389;-43
2022/10/14 11:50:30;;;;;;;3.05;2.13;;;;;;;15.17;73.60;99454.31;5002761;28;20042;-45
2022/10/14 11:53:04;;;;;;;2.35;2.10;;;;;;;15.24;73.05;99452.38;4987969;28;20080;-45
2022/10/14 11:55:38;;;;;;;5.28;2.42;;;;;;;15.25;72.80;99451.44;5001271;28;20042;-45
2022/10/14 11:58:13;;;;;;;4.78;1.80;;;;;;;15.30;73.06;99449.53;4999356;28;20070;-45
2022/10/14 12:00:43;;;;;;;4.50;2.40;;;;;;;15.34;73.44;99442.47;5000276;28;20081;-42
2022/10/14 12:06:13;;;;;;;3.25;0.75;;;;;;;15.45;72.35;99442.13;5049232;27;20403;-43
2022/10/14 12:09:02;;;;;;;3.70;1.73;;;;;;;15.46;72.64;99438.59;5002422;28;20050;-44
2022/10/14 12:11:34;;;;;;;;;;;;;;;15.42;73.10;99435.25;5007057;28;20534;-43
2022/10/14 12:16:43;;;;;;;2.15;1.10;;;;;;;15.68;72.79;99437.00;5049508;28;20403;-44
2022/10/14 12:19:13;;;;;;;3.63;0.90;;;;;;;15.68;72.50;99430.94;5021543;28;20509;-46
2022/10/14 12:21:48;;;;;;;5.20;1.20;;;;;;;15.67;72.09;99424.84;5011278;28;20096;-43
2022/10/14 12:24:20;;;;;;;5.95;1.58;;;;;;;15.68;72.07;99429.16;5012415;28;20054;-45
2022/10/14 12:29:30;;;;;;;4.07;1.50;;;;;;;15.74;72.34;99417.66;5034125;28;20406;-45
2022/10/14 12:34:42;;;;;;;6.30;2.22;;;;;;;15.78;71.92;99410.59;5044034;28;20876;-43
2022/10/14 12:40:21;;;;;;;3.10;2.78;;;;;;;15.92;72.36;99405.75;5057799;27;20902;-44
2022/10/14 12:43:00;;;;;;;5.60;3.33;;;;;;;16.04;72.32;99406.22;5048238;28;20509;-44
2022/10/14 12:45:29;;;;;;;3.45;2.70;;;;;;;16.18;71.96;99401.34;5066986;28;20151;-45
2022/10/14 12:50:56;;;;;;;5.10;1.70;;;;;;;16.35;71.41;99394.66;5047371;27;20409;-44
2022/10/14 12:53:28;;;;;;;5.03;1.60;;;;;;;16.39;72.09;99401.50;5019947;28;20586;-42
2022/10/14 12:55:58;;;;;;;2.95;1.50;;;;;;;16.44;72.04;99393.44;5021710;28;20138;-44
2022/10/14 13:01:15;;;;;;;7.05;2.75;;;;;;;16.59;71.26;99392.03;5041445;28;20401;-42
2022/10/14 13:03:46;;;;;;;7.28;2.95;;;;;;;16.70;70.88;99395.09;5025233;28;20053;-43
2022/10/14 13:06:35;;;;;;;8.73;2.17;;;;;;;16.88;71.43;99397.06;5020087;28;20133;-44
2022/10/14 13:09:28;;;;;;;4.68;2.63;;;;;;;17.09;70.51;99384.88;5018761;28;20112;-43
2022/10/14 13:14:52;;;;;;;3.40;2.75;;;;;;;17.45;69.30;99376.44;5046064;28;20408;-44
2022/10/14 13:26:28;;;;;;;6.60;1.58;;;;;;;17.65;68.33;99382.59;5056634;27;20403;-43
2022/10/14 13:40:30;;;;;;;2.78;1.00;;;;;;;17.38;67.12;99364.53;4985196;28;20405;-43
2022/10/14 13:42:59;;;;;;;3.63;1.30;;;;;;;17.39;67.73;99366.22;4973240;28;20407;-42
2022/10/14 13:45:33;;;;;;;2.38;1.02;;;;;;;17.36;66.46;99353.25;4977397;28;20053;-44
2022/10/14 13:48:05;;;;;;;2.47;1.27;;;;;;;17.32;66.63;99354.28;4973327;28;20073;-42
2022/10/14 13:50:35;;;;;;;3.33;1.75;;;;;;;17.26;66.72;99339.69;4977838;28;20133;-42
2022/10/14 13:53:04;;;;;;;5.43;1.83;;;;;;;17.24;67.08;99330.22;4976126;28;20081;-44
2022/10/14 13:55:46;;;;;;;4.95;1.40;;;;;;;17.21;66.27;99323.34;4978536;28;20081;-43
2022/10/14 13:58:20;;;;;;;;;;;;;;;17.07;66.59;99319.56;4983423;28;20043;-44
2022/10/14 14:06:14;;;;;;;3.80;1.40;;;;;;;17.19;66.02;99312.94;5028575;28;20774;-42
2022/10/14 14:08:47;;;;;;;2.65;1.02;;;;;;;17.17;66.99;99308.69;5018288;28;20049;-43
2022/10/14 14:11:21;;;;;;;3.17;1.63;;;;;;;17.16;66.37;99310.47;5016581;28;21040;-42
2022/10/14 14:13:54;;;;;;;4.68;1.45;;;;;;;17.15;66.33;99314.00;5014825;28;20149;-44
2022/10/14 14:16:30;;;;;;;4.10;1.50;;;;;;;17.11;66.43;99315.03;5015981;28;20068;-44
2022/10/14 14:18:57;;;;;;;3.80;1.20;;;;;;;17.09;66.22;99316.84;5012336;28;20111;-43
2022/10/14 14:21:39;;;;;;;5.35;1.67;;;;;;;17.07;66.09;99313.47;5014175;28;20168;-43
2022/10/14 14:24:15;;;;;;;3.50;1.35;;;;;;;17.03;66.08;99319.72;5012533;28;20128;-42
2022/10/14 14:26:43;;;;;;;3.03;1.00;;;;;;;17.02;65.77;99320.63;5014226;28;20136;-45
2022/10/14 14:29:17;;;;;;;4.20;1.25;;;;;;;16.96;65.64;99317.34;5017167;28;20140;-44
2022/10/14 14:31:45;;;;;;;2.95;0.88;;;;;;;16.95;66.04;99320.88;4994784;28;20133;-43